Nar'yan-Mar, Russia
Current Conditions -  °F | °C
As of 9:30 AM on Wednesday 28 Jan 2015 (Local Time) from ULAA Reporting Station
Light Snow Light Snow  
Wind Chill: 14°   Ceiling: 800
Heat Index: 25°   Visibility: 3mi
Dew Point: 23°   Wind: 11mph
Humidity: 93%   Direction: 240°WSW
Pressure: 29.41"   Gusts: 18mph
Location:  67.63°N, 53.03°E
Report Text: ULAA 280630Z 24005G08MPS 5000 -SN OVC008 M04/M05 Q0996 NOSIG RMK QFE745/0994 SC035
Loading
Personal Weather Stations






























Interactive Weather Map New forecast layout! Learn more

10-Day Weather Forecast

Advertisements
Track Severe Weather on mobile